Holden, Missouri
Current Conditions -  °F | °C
As of 11:35 AM on Wednesday 26 Nov 2014 (Local Time) from KRCM Reporting Station
Overcast Overcast  
Wind Chill: 36°   Ceiling: 2700
Heat Index: 43°   Visibility: 10mi
Dew Point: 34°   Wind: 13mph
Humidity: 70%   Direction: 280°W
Pressure: 29.98"   Gusts: NA
Location:  38.71°N, 93.99°W
Report Text: KRCM 261735Z AUTO 28011KT 10SM OVC027 06/01 A2998 RMK AO2
Loading
Personal Weather Stations






























Interactive Weather Map New forecast layout! Learn more

10-Day Weather Forecast

Advertisements
Track Severe Weather on mobile